createdAt,value
2022-09-15T00:02:04.536Z,97513.94
2022-09-15T00:07:11.417Z,97511.34
2022-09-15T00:12:17.261Z,97526.25
2022-09-15T00:17:25.425Z,97522.47
2022-09-15T00:22:31.829Z,97544.47
2022-09-15T00:27:37.520Z,97531.50
2022-09-15T00:32:45.878Z,97549.66
2022-09-15T00:37:51.413Z,97543.94
2022-09-15T00:42:56.758Z,97523.06
2022-09-15T00:48:05.381Z,97541.88
2022-09-15T00:53:14.960Z,97541.75
2022-09-15T00:58:24.528Z,97533.31
2022-09-15T01:03:37.134Z,97547.13
2022-09-15T01:08:47.761Z,97563.06
2022-09-15T01:13:53.327Z,97570.31
2022-09-15T01:19:14.358Z,97571.63
2022-09-15T01:24:48.998Z,97549.91
2022-09-15T01:30:13.018Z,97557.28
2022-09-15T01:35:29.215Z,97547.63
2022-09-15T01:40:40.661Z,97575.28
2022-09-15T01:45:51.555Z,97577.41
2022-09-15T01:51:00.860Z,97579.75
2022-09-15T01:56:11.287Z,97567.63
2022-09-15T02:01:29.952Z,97563.84
2022-09-15T02:06:41.300Z,97582.34
2022-09-15T02:11:57.580Z,97561.44
2022-09-15T02:17:06.099Z,97566.28
2022-09-15T02:22:18.097Z,97561.31
2022-09-15T02:27:27.093Z,97557.03
2022-09-15T02:32:41.060Z,97578.47
2022-09-15T02:37:47.156Z,97581.59
2022-09-15T02:42:58.069Z,97584.16
2022-09-15T02:48:09.527Z,97595.50
2022-09-15T02:53:15.605Z,97586.25
2022-09-15T02:58:21.035Z,97592.38
2022-09-15T03:03:28.831Z,97579.56
2022-09-15T03:08:34.241Z,97575.63
2022-09-15T03:13:41.116Z,97574.34
2022-09-15T03:18:48.881Z,97581.25
2022-09-15T03:23:54.014Z,97582.69
2022-09-15T03:28:59.131Z,97601.09
2022-09-15T03:34:06.962Z,97595.88
2022-09-15T03:39:24.524Z,97602.53
2022-09-15T03:44:30.357Z,97589.28
2022-09-15T03:49:38.791Z,97598.19
2022-09-15T03:54:44.457Z,97592.03
2022-09-15T03:59:50.399Z,97588.31
2022-09-15T04:04:58.289Z,97580.41
2022-09-15T04:10:05.026Z,97592.66
2022-09-15T04:15:10.976Z,97598.94
2022-09-15T04:20:20.132Z,97587.59
2022-09-15T04:25:25.494Z,97584.97
2022-09-15T04:30:31.204Z,97566.25
2022-09-15T04:35:39.760Z,97597.75
2022-09-15T04:40:45.255Z,97591.91
2022-09-15T04:45:50.724Z,97584.56
2022-09-15T04:51:04.738Z,97583.03
2022-09-15T04:56:11.968Z,97582.13
2022-09-15T05:01:19.317Z,97608.03
2022-09-15T05:06:29.495Z,97599.78
2022-09-15T05:11:35.802Z,97599.16
2022-09-15T05:16:41.475Z,97607.81
2022-09-15T05:21:49.417Z,97613.22
2022-09-15T05:26:54.909Z,97613.03
2022-09-15T05:32:00.158Z,97619.97
2022-09-15T05:37:08.218Z,97624.81
2022-09-15T05:42:13.502Z,97627.44
2022-09-15T05:47:19.309Z,97622.13
2022-09-15T05:52:28.338Z,97619.56
2022-09-15T05:57:33.835Z,97633.06
2022-09-15T06:02:39.043Z,97633.13
2022-09-15T06:07:46.699Z,97619.16
2022-09-15T06:12:52.262Z,97624.34
2022-09-15T06:17:57.182Z,97645.00
2022-09-15T06:23:04.832Z,97617.19
2022-09-15T06:28:09.877Z,97637.63
2022-09-15T06:33:14.923Z,97634.16
2022-09-15T06:38:22.549Z,97627.78
2022-09-15T06:43:29.848Z,97625.44
2022-09-15T06:48:35.129Z,97630.47
2022-09-15T06:53:43.908Z,97622.09
2022-09-15T06:58:50.691Z,97619.75
2022-09-15T07:03:56.323Z,97635.41
2022-09-15T07:09:04.722Z,97631.25
2022-09-15T07:14:10.226Z,97637.41
2022-09-15T07:19:15.245Z,97629.41
2022-09-15T07:24:23.005Z,97640.47
2022-09-15T07:29:28.438Z,97647.66
2022-09-15T07:34:33.515Z,97643.34
2022-09-15T07:39:40.892Z,97643.34
2022-09-15T07:44:45.811Z,97659.19
2022-09-15T07:49:50.976Z,97645.88
2022-09-15T07:54:59.432Z,97654.09
2022-09-15T08:00:04.720Z,97669.66
2022-09-15T08:05:37.336Z,97680.13
2022-09-15T08:10:46.225Z,97675.97
2022-09-15T08:15:52.551Z,97676.78
2022-09-15T08:20:57.531Z,97687.25
2022-09-15T08:26:05.115Z,97693.81
2022-09-15T08:31:11.909Z,97696.31
2022-09-15T08:36:17.020Z,97682.69
2022-09-15T08:41:27.598Z,97688.41
2022-09-15T08:46:41.485Z,97694.28
2022-09-15T08:51:50.432Z,97691.94
2022-09-15T08:57:00.358Z,97693.09
2022-09-15T09:02:36.405Z,97690.84
2022-09-15T09:07:59.908Z,97690.38
2022-09-15T09:13:21.899Z,97707.53
2022-09-15T09:18:52.304Z,97719.09
2022-09-15T09:24:10.055Z,97710.06
2022-09-15T09:29:21.216Z,97711.41
2022-09-15T09:34:35.550Z,97706.13
2022-09-15T09:39:41.758Z,97712.06
2022-09-15T09:44:51.545Z,97710.19
2022-09-15T09:50:00.387Z,97703.84
2022-09-15T09:55:19.066Z,97697.81
2022-09-15T10:00:37.816Z,97685.16
2022-09-15T10:05:43.855Z,97692.50
2022-09-15T10:10:56.963Z,97690.81
2022-09-15T10:16:08.947Z,97690.19
2022-09-15T10:21:17.520Z,97693.59
2022-09-15T10:26:25.184Z,97699.63
2022-09-15T10:31:35.257Z,97692.56
2022-09-15T10:36:40.270Z,97690.69
2022-09-15T10:41:53.984Z,97693.75
2022-09-15T10:47:12.018Z,97696.31
2022-09-15T10:52:30.319Z,97699.56
2022-09-15T10:57:53.225Z,97694.16
2022-09-15T11:03:20.837Z,97695.41
2022-09-15T11:08:41.132Z,97697.91
2022-09-15T11:14:01.051Z,97687.63
2022-09-15T11:19:21.571Z,97676.13
2022-09-15T11:24:34.965Z,97680.41
2022-09-15T11:29:55.468Z,97682.91
2022-09-15T11:35:11.201Z,97681.13
2022-09-15T11:40:24.725Z,97673.66
2022-09-15T11:45:35.394Z,97676.03
2022-09-15T11:50:48.348Z,97668.28
2022-09-15T11:56:00.249Z,97677.53
2022-09-15T12:01:15.503Z,97679.34
2022-09-15T12:06:30.139Z,97676.66
2022-09-15T12:11:38.936Z,97675.63
2022-09-15T12:16:44.660Z,97679.84
2022-09-15T12:22:01.518Z,97673.72
2022-09-15T12:27:07.382Z,97675.09
2022-09-15T12:32:27.771Z,97674.56
2022-09-15T12:37:40.080Z,97658.03
2022-09-15T12:42:48.873Z,97678.97
2022-09-15T12:47:57.626Z,97675.31
2022-09-15T12:53:16.824Z,97675.28
2022-09-15T12:58:30.520Z,97679.00
2022-09-15T13:04:08.268Z,97679.94
2022-09-15T13:09:30.483Z,97681.00
2022-09-15T13:14:42.051Z,97685.56
2022-09-15T13:19:49.954Z,97678.59
2022-09-15T13:25:04.670Z,97684.28
2022-09-15T13:30:26.483Z,97697.41
2022-09-15T13:35:48.435Z,97688.88
2022-09-15T13:41:20.252Z,97687.97
2022-09-15T13:46:35.517Z,97688.97
2022-09-15T13:51:44.841Z,97688.88
2022-09-15T13:56:53.426Z,97695.03
2022-09-15T14:01:59.209Z,97690.09
2022-09-15T14:07:05.025Z,97697.84
2022-09-15T14:12:16.997Z,97680.44
2022-09-15T14:17:25.573Z,97698.53
2022-09-15T14:22:32.756Z,97680.97
2022-09-15T14:27:47.665Z,97683.81
2022-09-15T14:32:56.760Z,97691.66
2022-09-15T14:38:03.834Z,97699.50
2022-09-15T14:43:34.020Z,97697.53
2022-09-15T14:48:38.889Z,97708.28
2022-09-15T14:53:45.669Z,97691.09
2022-09-15T14:58:55.776Z,97708.69
2022-09-15T15:04:06.126Z,97695.91
2022-09-15T15:09:19.437Z,97693.16
2022-09-15T15:14:27.231Z,97681.44
2022-09-15T15:19:37.702Z,97691.66
2022-09-15T15:24:45.992Z,97679.41
2022-09-15T15:29:53.429Z,97675.38
2022-09-15T15:35:04.694Z,97673.19
2022-09-15T15:40:18.593Z,97672.66
2022-09-15T15:45:29.949Z,97666.06
2022-09-15T15:50:35.704Z,97677.31
2022-09-15T15:55:53.983Z,97667.78
2022-09-15T16:01:02.051Z,97670.91
2022-09-15T16:06:09.539Z,97676.25
2022-09-15T16:11:19.341Z,97671.38
2022-09-15T16:16:30.637Z,97679.72
2022-09-15T16:21:39.198Z,97676.06
2022-09-15T16:26:45.006Z,97691.00
2022-09-15T16:31:54.331Z,97680.56
2022-09-15T16:37:00.053Z,97685.97
2022-09-15T16:42:05.057Z,97701.25
2022-09-15T16:47:17.697Z,97699.28
2022-09-15T16:52:24.801Z,97703.78
2022-09-15T16:57:29.704Z,97704.47
2022-09-15T17:02:39.429Z,97706.53
2022-09-15T17:07:44.676Z,97706.97
2022-09-15T17:12:49.830Z,97701.97
2022-09-15T17:17:57.910Z,97702.47
2022-09-15T17:23:04.137Z,97714.81
2022-09-15T17:28:09.054Z,97710.25
2022-09-15T17:33:18.740Z,97718.41
2022-09-15T17:38:24.262Z,97718.50
2022-09-15T17:43:31.830Z,97722.38
2022-09-15T17:48:39.650Z,97730.75
2022-09-15T17:53:47.061Z,97738.06
2022-09-15T17:58:53.549Z,97733.34
2022-09-15T18:04:01.352Z,97728.19
2022-09-15T18:09:06.889Z,97733.50
2022-09-15T18:14:12.213Z,97732.81
2022-09-15T18:19:19.654Z,97737.28
2022-09-15T18:24:24.746Z,97740.84
2022-09-15T18:29:29.672Z,97741.22
2022-09-15T18:34:37.337Z,97746.56
2022-09-15T18:39:42.872Z,97747.59
2022-09-15T18:44:47.888Z,97746.56
2022-09-15T18:49:57.264Z,97748.53
2022-09-15T18:55:02.865Z,97749.25
2022-09-15T19:00:13.098Z,97760.97
2022-09-15T19:05:21.956Z,97771.50
2022-09-15T19:10:29.394Z,97762.38
2022-09-15T19:15:35.638Z,97770.72
2022-09-15T19:20:44.912Z,97770.41
2022-09-15T19:25:49.886Z,97765.56
2022-09-15T19:30:54.752Z,97777.03
2022-09-15T19:36:27.358Z,97782.47
2022-09-15T19:41:33.287Z,97786.53
2022-09-15T19:46:38.166Z,97779.38
2022-09-15T19:51:46.184Z,97784.88
2022-09-15T19:56:51.392Z,97787.81
2022-09-15T20:01:57.530Z,97791.88
2022-09-15T20:07:05.240Z,97790.25
2022-09-15T20:12:10.342Z,97791.44
2022-09-15T20:17:15.384Z,97796.38
2022-09-15T20:22:25.116Z,97803.69
2022-09-15T20:27:30.101Z,97803.84
2022-09-15T20:32:36.359Z,97801.31
2022-09-15T20:37:45.179Z,97792.53
2022-09-15T20:42:50.647Z,97798.00
2022-09-15T20:47:55.471Z,97794.03
2022-09-15T20:53:03.068Z,97794.13
2022-09-15T20:58:08.169Z,97796.09
2022-09-15T21:03:13.506Z,97805.31
2022-09-15T21:08:21.215Z,97799.88
2022-09-15T21:13:26.186Z,97806.53
2022-09-15T21:18:34.175Z,97813.97
2022-09-15T21:23:43.839Z,97818.06
2022-09-15T21:28:49.119Z,97819.13
2022-09-15T21:33:56.104Z,97813.53
2022-09-15T21:39:03.603Z,97829.75
2022-09-15T21:44:10.853Z,97831.22
2022-09-15T21:49:18.159Z,97835.16
2022-09-15T21:54:25.993Z,97834.72
2022-09-15T21:59:30.917Z,97840.28
2022-09-15T22:04:35.923Z,97845.25
2022-09-15T22:09:43.450Z,97851.13
2022-09-15T22:14:48.610Z,97860.03
2022-09-15T22:19:55.770Z,97849.88
2022-09-15T22:25:03.177Z,97850.28
2022-09-15T22:30:09.496Z,97840.34
2022-09-15T22:35:14.388Z,97841.97
2022-09-15T22:40:21.984Z,97852.81
2022-09-15T22:45:28.318Z,97859.16
2022-09-15T22:50:33.176Z,97849.91
2022-09-15T22:55:42.232Z,97856.16
2022-09-15T23:00:47.178Z,97870.91
2022-09-15T23:05:59.995Z,97858.91
2022-09-15T23:11:10.142Z,97862.44
2022-09-15T23:16:15.180Z,97858.66
2022-09-15T23:21:20.605Z,97865.63
2022-09-15T23:26:29.233Z,97880.50
2022-09-15T23:31:34.145Z,97875.03
2022-09-15T23:36:40.049Z,97887.94
2022-09-15T23:41:50.748Z,97891.16
2022-09-15T23:46:56.019Z,97877.13
2022-09-15T23:52:00.962Z,97877.47
2022-09-15T23:57:11.106Z,97868.91
